Terminal Aerodrome Forecast
Issued by NWS Sterling, VA

Current Version | Previous Version | Text Only | Print | Product List | Glossary Off
Versions: 1 2 3 4 5 6 7 8 9 10 11 12 13 14 15 16 17 18 19 20 21 22 23 24 25 26 27

000
FTUS41 KLWX 302059 AAB
TAFDCA
TAF AMD
KDCA 302059Z 3021/0118 19006KT P6SM VCSH BKN060
     FM010300 06011KT 6SM -SHRA OVC050
     FM010900 05013G20KT 6SM -RA OVC015
     FM011200 04013KT P6SM OVC050=

USA.gov is the U.S. government's official web portal to all federal, state and local government web resources and services.